Weather observations for the past three days for
Thomaston, Thomaston-Upson County Airport
Metric (Imperial)
Date Time (edt) Wind (kph) Vis. (km) Weather Sky Cond. Temperature (ºC) Relative Humidity Wind Chill (°C) Heat Index (°C) Pressure Precipitation (cm)
Air Dwpt 6 hour altimeter (cm) sea level (mb) 1 hr 3 hr 6 hr
Max. Min.
04 20:35 S 6 16.09 Fair CLR 19 8 49% 76.17 0.0
04 20:15 S 6 16.09 Fair CLR 21 7 40% 76.17 0.0
04 19:55 S 7 16.09 Fair CLR 21 8 43% 76.17 0.0
04 19:35 SE 9 16.09 Fair CLR 23 7 36% 76.17 0.0
04 19:15 S 9 16.09 Fair CLR 23 7 36% 76.17 0.0
04 18:55 S 11 16.09 Fair CLR 24 5 29% 25 76.17 0.0
04 18:35 S 7 16.09 Fair CLR 25 5 28% 25 76.17 0.0
04 18:15 SW 7 16.09 Fair CLR 25 5 28% 25 76.15 0.0
04 17:55 S 9 16.09 Fair CLR 26 5 26% 26 76.15 0.0
04 17:35 S 11 16.09 Fair CLR 25 5 28% 25 76.17 0.0
04 17:15 S 9 16.09 Fair CLR 25 5 28% 25 76.17 0.0
04 16:55 S 6 16.09 Fair CLR 25 6 30% 25 76.17 0.0
04 16:35 SW 11 16.09 Fair CLR 26 6 28% 26 76.17 0.0
04 16:15 S 6 16.09 Fair CLR 25 5 28% 25 76.2 0.0
04 15:55 Calm 16.09 Fair CLR 25 6 30% 25 76.23 0.0
04 15:35 S 11 16.09 Fair CLR 25 5 28% 25 76.25 0.0
04 15:15 SW 7 16.09 Fair CLR 25 5 28% 25 76.28 0.0
04 14:55 Calm 16.09 Fair CLR 23 5 31% 76.3 0.0
04 14:35 Calm 16.09 Fair CLR 23 3 27% 76.3 0.0
04 14:15 Calm 16.09 Fair CLR 23 5 31% 76.33 0.0
04 13:55 S 6 16.09 Fair CLR 23 7 36% 76.33 0.0
04 13:35 Calm 16.09 Fair CLR 22 5 33% 76.35 0.0
04 13:15 S 6 16.09 Fair CLR 23 7 36% 76.38 0.0
04 12:55 S 6 16.09 Fair CLR 22 5 33% 76.38 0.0
04 12:35 Calm 16.09 Fair CLR 21 6 38% 76.4 0.0
04 12:15 S 6 16.09 Fair CLR 21 7 40% 76.43 0.0
04 11:55 Calm 16.09 Fair CLR 21 6 38% 76.45 0.0
04 11:35 Calm 16.09 Fair CLR 21 6 38% 76.45 0.0
04 11:15 W 6 16.09 Fair CLR 20 6 40% 76.48 0.0
04 10:55 W 7 16.09 Fair CLR 20 5 38% 76.48 0.0
04 10:35 W 7 16.09 Fair CLR 19 5 40% 76.48 0.0
04 10:15 SW 7 16.09 Fair CLR 18 6 46% 76.48 0.0
04 09:55 Calm 16.09 Fair CLR 18 6 46% 76.48 0.0
04 09:35 Calm 16.09 Fair CLR 17 7 52% 76.48 0.0
04 09:15 Calm 16.09 Fair CLR 15 9 68% 76.48 0.0
04 08:55 Calm 16.09 Fair CLR 13 8 72% 76.45 0.0
04 08:35 Calm 16.09 Fair CLR 12 10 88% 76.45 0.0
04 08:15 Calm 16.09 Fair CLR 10 7 82% 76.45 0.0
04 07:55 Calm 16.09 Fair CLR 7 7 100% 76.45 0.0
04 07:35 Calm 16.09 Fair CLR 6 6 100% 76.43 0.0
04 07:15 Calm 16.09 Fair CLR 6 5 93% 76.4 0.0
04 06:55 Calm 16.09 Fair CLR 6 5 93% 76.4 0.0
04 06:35 Calm 16.09 Fair CLR 6 5 93% 76.4 0.0
04 06:15 Calm 16.09 Fair CLR 6 5 93% 76.4 0.0
04 05:55 Calm 16.09 Fair CLR 6 5 93% 76.43 0.0
04 05:35 Calm 16.09 Fair CLR 6 6 100% 76.43 0.0
04 05:15 Calm 16.09 Fair CLR 7 6 93% 76.4 0.0
04 04:55 Calm 16.09 Fair CLR 7 6 93% 76.4 0.0
04 04:35 Calm 16.09 Fair CLR 7 6 93% 76.4 0.0
04 04:15 Calm 16.09 Fair CLR 7 6 93% 76.43 0.0
04 03:55 Calm 16.09 Fair CLR 7 6 93% 76.43 0.0
04 03:35 Calm 16.09 Fair CLR 8 6 87% 76.43 0.0
04 03:15 Calm 16.09 Fair CLR 8 6 87% 76.43 0.0
04 02:55 Calm 16.09 Fair CLR 8 6 87% 76.43 0.0
04 02:35 Calm 16.09 Fair CLR 8 6 87% 76.43 0.0
04 02:15 Calm 16.09 Fair CLR 7 6 93% 76.45 0.0
04 01:55 Calm 16.09 Fair CLR 8 6 87% 76.48 0.0
04 01:35 Calm 16.09 Fair CLR 8 6 87% 76.48 0.0
04 01:15 Calm 16.09 Fair CLR 9 6 82% 76.48 0.0
04 00:55 Calm 16.09 Fair CLR 9 6 82% 76.48 0.0
04 00:35 Calm 16.09 Fair CLR 9 6 82% 76.48 0.0
04 00:15 Calm 16.09 Fair CLR 9 6 82% 76.48 0.0
03 23:55 Calm 16.09 Fair CLR 12 6 67% 76.48 0.0
03 23:35 Calm 16.09 Fair CLR 10 7 82% 76.48 0.0
03 23:15 Calm 16.09 Fair CLR 11 7 77% 76.48 0.0
03 22:55 Calm 16.09 Fair CLR 11 8 82% 76.45 0.0
03 22:35 Calm 16.09 Fair CLR 11 8 82% 76.45 0.0
03 22:15 Calm 16.09 Fair CLR 12 7 72% 76.43 0.0
03 21:55 Calm 16.09 Fair CLR 12 6 67% 76.4 0.0
03 21:35 Calm 16.09 Fair CLR 12 7 72% 76.4 0.0
03 21:15 Calm 16.09 Fair CLR 13 7 67% 76.38 0.0
03 20:55 Calm 16.09 Fair CLR 14 6 59% 76.38 0.0
03 20:35 Calm 16.09 Fair CLR 16 6 52% 76.35 0.0
03 20:15 W 6 16.09 Fair CLR 18 5 43% 76.35 0.0
03 19:55 NW 6 16.09 Fair CLR 19 4 37% 76.33 0.0
03 19:35 NW 9 16.09 Fair CLR 20 3 33% 76.33 0.0
03 19:15 W 7 16.09 Fair CLR 21 2 29% 76.35 0.0
03 18:55 W 13 16.09 Fair CLR 21 2 29% 76.35 0.0
03 18:35 NW 9 16.09 Fair CLR 21 1 27% 76.35 0.0
03 18:15 NW 6 16.09 Fair CLR 21 1 27% 76.35 0.0
03 17:55 W 9 G 26 16.09 Fair CLR 22 2 27% 76.38 0.0
03 17:35 W 13 16.09 Fair CLR 22 2 27% 76.38 0.0
03 17:15 NW 17 G 28 16.09 Fair CLR 22 2 27% 76.38 0.0
03 16:55 W 15 16.09 Fair CLR 22 2 27% 76.4 0.0
03 16:35 NW 6 16.09 NULL NULL 21 2 29% 76.4 0.0
03 09:55 N 6 16.09 Fair CLR 13 6 63% 76.63 0.0
03 09:35 NW 6 16.09 Fair CLR 12 6 67% 76.63 0.0
03 09:15 N 7 16.09 Fair CLR 11 6 72% 76.63 0.0
03 08:55 N 7 16.09 Fair CLR 11 6 72% 76.61 0.0
03 08:35 N 11 16.09 Fair CLR 10 6 76% 9 76.58 0.0
03 08:15 N 11 16.09 Fair CLR 9 6 82% 8 76.58 0.0
03 07:55 N 9 16.09 Fair CLR 8 5 82% 7 76.56 0.0
03 07:35 NE 7 16.09 Fair CLR 8 5 82% 7 76.53 0.0
03 07:15 NE 9 16.09 Fair CLR 7 5 87% 5 76.53 0.0
03 06:55 N 9 16.09 Fair CLR 7 4 81% 5 76.5 0.0
03 06:35 N 9 16.09 Fair CLR 7 4 81% 5 76.5 0.0
03 06:15 N 7 16.09 Fair CLR 7 5 87% 6 76.48 0.0
03 05:55 N 11 16.09 Fair CLR 7 5 87% 5 76.48 0.0
03 05:35 N 9 16.09 Fair CLR 7 4 81% 5 76.48 0.0
03 05:15 N 9 16.09 Fair CLR 7 5 87% 5 76.48 0.0
03 04:55 N 7 16.09 Fair CLR 8 5 82% 7 76.48 0.0
03 04:35 N 9 16.09 Fair CLR 8 5 82% 7 76.45 0.0
03 04:15 N 7 16.09 Fair CLR 8 5 82% 7 76.43 0.0
03 03:55 N 7 16.09 Fair CLR 8 5 82% 7 76.43 0.0
03 03:35 N 7 16.09 Fair CLR 8 5 82% 7 76.4 0.0
03 03:15 N 9 16.09 Fair CLR 8 5 82% 7 76.4 0.0
03 02:55 N 7 16.09 Fair CLR 8 5 82% 7 76.38 0.0
03 02:35 N 9 16.09 Fair CLR 9 5 76% 8 76.38 0.0
03 02:15 N 9 16.09 Fair CLR 9 5 76% 8 76.38 0.0
03 01:55 N 9 16.09 Fair CLR 9 5 76% 8 76.38 0.0
03 01:35 N 9 16.09 Fair CLR 9 5 76% 8 76.38 0.0
03 01:15 N 6 16.09 Fair CLR 9 5 76% 76.38 0.0
03 00:55 N 9 16.09 Fair CLR 10 5 71% 9 76.35 0.0
03 00:35 N 9 16.09 Fair CLR 10 5 71% 9 76.33 0.0
03 00:15 N 9 16.09 Fair CLR 10 5 71% 9 76.33 0.0
02 23:55 N 9 16.09 Fair CLR 10 5 71% 9 76.33 0.0
02 23:35 N 9 16.09 Fair CLR 10 5 71% 9 76.33 0.0
02 23:15 N 7 16.09 Fair CLR 9 5 76% 8 76.33 0.0
02 22:55 Calm 16.09 Fair CLR 10 4 67% 76.3 0.0
02 22:35 N 6 16.09 Fair CLR 11 5 67% 76.28 0.0
02 22:15 N 6 16.09 Fair CLR 10 5 71% 76.25 0.0
02 21:55 N 7 16.09 Fair CLR 12 3 54% 76.23 0.0
02 21:35 NW 7 16.09 Fair CLR 12 4 58% 76.2 0.0
02 21:15 Calm 16.09 Fair CLR 12 3 54% 76.17 0.0
02 20:55 N 6 16.09 Fair CLR 14 2 44% 76.17 0.0
02 20:35 N 9 16.09 Fair CLR 15 2 42% 76.15 0.0
02 20:15 N 11 16.09 Fair CLR 16 1 36% 76.1 0.0
02 19:55 N 13 G 33 16.09 Fair CLR 18 1 32% 76.07 0.0
02 19:35 N 13 16.09 Fair CLR 18 1 32% 76.05 0.0
02 19:15 NW 22 16.09 Fair CLR 19 1 30% 76.05 0.0
02 18:55 N 22 G 30 16.09 Fair CLR 20 2 30% 76.02 0.0
02 18:35 NW 22 G 31 16.09 Fair CLR 20 1 28% 76.02 0.0
02 18:15 NW 24 16.09 Fair CLR 21 3 31% 76 0.0
02 17:55 NW 20 G 28 16.09 Fair CLR 21 4 33% 75.97 0.0
02 17:35 NW 17 G 28 16.09 Partly Cloudy SCT060 21 6 38% 75.95 0.0
02 17:15 N 22 G 30 16.09 Mostly Cloudy BKN060 21 7 40% 75.92 0.0
02 16:55 NW 20 G 28 16.09 Partly Cloudy SCT055 22 8 41% 75.95 0.0
02 16:35 NW 24 G 37 16.09 Partly Cloudy SCT065 21 8 43% 75.92 0.0
02 16:15 NW 15 G 28 16.09 Mostly Cloudy SCT050 BKN065 21 8 43% 75.95 0.0
02 15:55 NW 17 16.09 Partly Cloudy SCT050 22 9 44% 75.95 0.0
02 15:35 NW 22 16.09 Partly Cloudy SCT048 SCT050 21 8 43% 75.95 0.0
02 15:15 N 13 16.09 Mostly Cloudy BKN046 21 10 50% 75.97 0.0
02 14:55 NW 11 16.09 Partly Cloudy SCT042 20 10 53% 75.97 0.0
02 14:35 NW 20 16.09 Partly Cloudy SCT090 20 11 56% 75.97 0.0
02 14:15 N 11 16.09 Overcast OVC090 20 10 53% 75.97 0.0
02 13:55 N 15 16.09 Overcast SCT027 OVC090 19 11 60% 76 0.0
02 13:35 NW 13 16.09 Overcast BKN025 OVC090 18 12 68% 76.02 0.0
02 13:15 NW 15 16.09 Overcast SCT021 SCT026 OVC090 17 12 73% 76.02 0.0
02 12:55 NW 9 16.09 Overcast SCT019 OVC090 17 12 73% 76.05 0.0
02 12:35 NW 13 16.09 Overcast SCT019 OVC090 17 12 73% 76.05 0.0
02 12:15 N 9 16.09 Mostly Cloudy BKN090 17 12 73% 76.05 0.0
02 11:55 N 11 16.09 Partly Cloudy SCT110 16 13 83% 76.05 0.0
02 11:35 NW 11 16.09 Overcast SCT007 BKN090 OVC110 15 13 88% 76 0.0
02 11:15 N 9 16.09 Overcast OVC080 15 13 88% 76 0.0
02 10:55 Calm 16.09 Overcast OVC080 14 13 94% 76.02 0.0
02 10:35 N 6 16.09 Overcast OVC080 13 12 94% 76.02 0.0
02 10:15 NW 6 16.09 Rain SCT036 SCT050 OVC090 13 12 94% 76.02 0.0
02 09:55 N 7 16.09 Mostly Cloudy BKN090 13 13 100% 76 0.0
02 09:35 N 11 16.09 Partly Cloudy SCT090 14 13 94% 76 0.0
02 09:15 N 7 16.09 Light Rain SCT036 SCT048 BKN110 13 13 100% 75.97 0.0
02 08:55 N 7 16.09 Light Rain SCT038 SCT048 OVC085 13 12 94% 75.97 0.0 0.03
02 08:35 NW 6 16.09 Light Drizzle SCT004 BKN085 OVC110 13 12 94% 76.05 0.0 0.03
02 08:15 Calm 16.09 Light Drizzle BKN004 BKN120 13 12 94% 76 0.0
02 07:55 Calm 16.09 Mostly Cloudy BKN006 12 12 100% 76.02 0.0 0.05
02 07:35 N 6 16.09 Partly Cloudy SCT031 SCT047 SCT065 12 12 100% 75.92 0.0 0.05
02 07:15 NE 6 16.09 Light Rain SCT055 BKN090 OVC110 12 12 100% 75.9 0.0 0.03
02 06:55 NW 6 16.09 Light Rain OVC075 12 12 100% 76 0.0 0.13
02 06:35 Calm 11.27 Light Rain OVC060 12 12 100% 75.97 0.0 0.08
02 06:15 W 6 16.09 Light Rain SCT003 OVC050 12 12 100% 76 0.0 0.03
02 05:55 Calm 11.27 Rain SCT003 OVC050 12 12 100% 75.95 0.0 0.05
02 05:35 W 6 16.09 Drizzle OVC050 12 12 100% 75.97 0.0 0.03
02 05:15 W 7 16.09 Light Drizzle OVC050 12 12 100% 75.97 0.0 0.03
02 04:55 Calm 16.09 Drizzle SCT003 OVC050 12 12 100% 75.95 0.0 0.08
02 04:35 Calm 16.09 Rain SCT004 OVC050 12 12 100% 75.97 0.0 0.08
02 04:15 Calm 16.09 Light Rain SCT003 OVC050 12 12 100% 75.97 0.0 0.05
02 03:55 NW 6 16.09 Drizzle SCT003 BKN050 OVC100 13 12 94% 75.97 0.0 0.15
02 03:35 Calm 16.09 Light Rain SCT080 OVC100 13 12 94% 75.97 0.0 0.1
02 03:15 Calm 16.09 Light Rain SCT004 SCT018 OVC110 13 12 94% 75.97 0.0 0.05
02 02:55 Calm 8.05 Rain SCT004 BKN018 OVC100 13 12 94% 76 0.0 0.3
02 02:35 Calm 8.05 Light Rain SCT004 BKN060 OVC100 13 13 100% 76.05 0.0 0.18
02 02:15 SW 7 16.09 Light Rain SCT060 OVC100 13 13 100% 76.07 0.0 0.08
02 01:55 SW 9 16.09 Light Rain OVC100 13 13 100% 76.07 0.0 0.13
02 01:35 SW 6 16.09 Light Rain OVC100 14 13 94% 76.07 0.0 0.08
02 01:15 Calm 16.09 Light Rain OVC100 14 13 94% 76.05 0.0 0.03
02 00:55 Calm 16.09 Light Rain SCT080 OVC100 14 13 94% 76.05 0.0 0.05
02 00:35 Calm 16.09 Light Drizzle SCT085 OVC100 14 13 94% 76.05 0.0 0.03
02 00:15 Calm 16.09 Rain OVC095 15 13 88% 76.07 0.0
01 23:55 Calm 16.09 Drizzle SCT085 OVC095 15 13 88% 76.1 0.0 0.08
01 23:35 W 6 16.09 Drizzle SCT080 OVC095 15 13 88% 76.12 0.0 0.05
01 23:15 W 6 16.09 Rain OVC095 15 14 94% 76.12 0.0 0.03
01 22:55 W 6 16.09 Drizzle OVC095 15 14 94% 76.1 0.0 0.05
01 22:35 Calm 16.09 Rain OVC095 15 14 94% 76.07 0.0 0.03
01 22:15 NW 6 16.09 Light Rain OVC110 15 14 94% 76.1 0.0
01 21:55 Calm 16.09 Light Rain OVC110 16 13 83% 76.1 0.0
01 21:35 SW 7 16.09 Overcast OVC110 16 14 88% 76.1 0.0
01 21:15 Calm 16.09 Overcast OVC110 15 13 88% 76.05 0.0
01 20:55 Calm 16.09 Mostly Cloudy BKN110 15 13 88% 76.02 0.0
01 20:35 Calm 16.09 Mostly Cloudy BKN120 15 13 88% 76 0.0
Date Time (edt) Wind (kph) Vis. (km) Weather Sky Cond. Air Dwpt Max. Min. Relative Humidity Wind Chill (°C) Heat Index (°C) altimeter (cm) sea level (mb) 1 hr 3 hr 6 hr
6 hour
Temperature (ºC) Pressure Precipitation (cm)